Time;durP1;ratioP1;P1;durP2;ratioP2;P2;SDS_P1;SDS_P2;PMS_P1;PMS_P2;Temp;Humidity;BMP_temperature;BMP_pressure;BME280_temperature;BME280_humidity;BME280_pressure;Samples;Min_cycle;Max_cycle;Signal;HPM_P1;HPM_P2
2021/12/14 00:01:53;;;;;;;6.35;4.45;;;;;;;-0.94;100.00;94766.28;5130790;28;20110;-82
2021/12/14 00:04:32;;;;;;;8.35;4.70;;;;;;;-0.77;100.00;94767.13;5129529;28;20031;-84
2021/12/14 00:07:00;;;;;;;7.40;4.63;;;;;;;-1.11;100.00;94775.28;5114202;28;20023;-84
2021/12/14 00:09:32;;;;;;;8.70;5.13;;;;;;;-0.86;100.00;94775.66;5126779;28;20023;-84
2021/12/14 00:15:02;;;;;;;8.48;4.70;;;;;;;-0.90;100.00;94774.19;5130717;28;20034;-85
2021/12/14 00:17:33;;;;;;;9.68;5.57;;;;;;;-0.82;100.00;94772.19;5128972;28;20043;-84
2021/12/14 00:20:01;;;;;;;8.65;5.28;;;;;;;-0.66;100.00;94780.28;5123335;28;20032;-84
2021/12/14 00:24:05;;;;;;;10.02;4.78;;;;;;;-0.91;100.00;94773.44;5120832;28;20051;-82
2021/12/14 00:25:15;;;;;;;7.32;4.80;;;;;;;-0.89;100.00;94775.72;5122179;28;20450;-84
2021/12/14 00:27:41;;;;;;;7.88;5.45;;;;;;;-0.90;100.00;94774.97;5122288;28;20047;-83
2021/12/14 00:30:07;;;;;;;6.43;4.57;;;;;;;-1.09;100.00;94779.06;5121435;28;20102;-84
2021/12/14 00:32:35;;;;;;;7.32;4.60;;;;;;;-0.88;100.00;94772.63;5123199;28;20084;-84
2021/12/14 00:35:04;;;;;;;7.30;5.10;;;;;;;-0.72;100.00;94789.94;5131226;28;20027;-84
2021/12/14 00:37:33;;;;;;;7.72;5.03;;;;;;;-0.86;100.00;94781.00;5113193;28;20027;-83
2021/12/14 00:40:05;;;;;;;7.85;4.78;;;;;;;-0.82;100.00;94780.19;5132642;28;20050;-83
2021/12/14 00:42:30;;;;;;;8.63;4.57;;;;;;;-0.72;100.00;94785.34;5131537;28;20019;-83
2021/12/14 00:44:56;;;;;;;7.15;4.30;;;;;;;-0.73;100.00;94778.50;5127792;28;20023;-83
2021/12/14 00:47:22;;;;;;;8.48;5.10;;;;;;;-0.76;100.00;94791.91;5123314;28;20298;-83
2021/12/14 00:49:48;;;;;;;8.20;4.68;;;;;;;-0.80;100.00;94775.22;5123242;28;20035;-82
2021/12/14 00:52:14;;;;;;;7.38;4.70;;;;;;;-1.07;100.00;94782.06;5106998;28;20031;-82
2021/12/14 00:54:40;;;;;;;6.30;4.50;;;;;;;-0.92;100.00;94777.28;5107033;28;20444;-83
2021/12/14 00:57:08;;;;;;;6.00;4.50;;;;;;;-0.89;100.00;94773.78;5125346;28;20038;-83
2021/12/14 00:59:34;;;;;;;7.75;4.65;;;;;;;-0.92;100.00;94779.94;5124477;28;20024;-82
2021/12/14 01:02:07;;;;;;;8.32;4.70;;;;;;;-0.88;100.00;94771.91;5107638;28;20055;-82
2021/12/14 01:04:40;;;;;;;9.10;5.30;;;;;;;-0.77;100.00;94783.13;5124176;28;20024;-84
2021/12/14 01:07:08;;;;;;;6.13;4.28;;;;;;;-0.69;100.00;94783.78;5123345;28;20027;-82
2021/12/14 01:09:37;;;;;;;6.53;4.20;;;;;;;-0.51;100.00;94781.53;5123035;28;20030;-83
2021/12/14 01:12:11;;;;;;;9.80;4.50;;;;;;;-0.80;100.00;94789.28;5099072;28;20023;-82
2021/12/14 01:15:10;;;;;;;7.70;4.78;;;;;;;-0.68;100.00;94787.97;5119813;28;20031;-83
2021/12/14 01:17:42;;;;;;;6.38;4.35;;;;;;;-0.64;100.00;94791.31;5121698;28;20042;-82
2021/12/14 01:20:11;;;;;;;7.18;4.45;;;;;;;-0.82;100.00;94777.50;5128835;28;20019;-81
2021/12/14 01:22:46;;;;;;;6.78;4.53;;;;;;;-0.71;100.00;94778.09;5136099;28;20027;-83
2021/12/14 01:25:24;;;;;;;7.35;4.70;;;;;;;-0.65;100.00;94784.47;5130105;28;20028;-83
2021/12/14 01:27:58;;;;;;;7.40;4.63;;;;;;;-0.66;100.00;94785.63;5132232;28;20011;-83
2021/12/14 01:30:34;;;;;;;8.20;4.85;;;;;;;-0.70;100.00;94793.66;5130107;28;20108;-83
2021/12/14 01:33:05;;;;;;;7.57;4.30;;;;;;;-0.85;100.00;94776.41;5114225;28;20041;-83
2021/12/14 01:35:36;;;;;;;8.30;5.40;;;;;;;-0.81;100.00;94785.09;5131406;28;20104;-83
2021/12/14 01:38:17;;;;;;;6.93;4.82;;;;;;;-0.79;100.00;94790.78;5131441;28;20277;-83
2021/12/14 01:40:53;;;;;;;7.82;4.40;;;;;;;-0.76;100.00;94786.56;5129533;28;20024;-83
2021/12/14 01:43:26;;;;;;;7.65;4.95;;;;;;;-0.72;100.00;94781.94;5128980;28;20031;-83
2021/12/14 01:45:53;;;;;;;8.38;4.78;;;;;;;-0.71;100.00;94780.75;5125253;28;20088;-83
2021/12/14 01:48:19;;;;;;;7.55;4.90;;;;;;;-0.52;100.00;94787.28;5128156;28;20051;-83
2021/12/14 01:50:58;;;;;;;7.18;4.78;;;;;;;-0.55;100.00;94780.84;5111443;28;20034;-82
2021/12/14 01:53:25;;;;;;;7.38;4.75;;;;;;;-0.72;100.00;94782.66;5131168;28;20024;-83
2021/12/14 01:55:55;;;;;;;7.93;4.70;;;;;;;-0.68;100.00;94769.28;5131521;28;20027;-82
2021/12/14 01:58:31;;;;;;;7.07;5.00;;;;;;;-0.88;100.00;94777.97;5111701;28;20032;-83
2021/12/14 02:01:06;;;;;;;7.75;4.85;;;;;;;-1.05;100.00;94784.31;5130437;28;20030;-82
2021/12/14 02:03:44;;;;;;;10.35;5.20;;;;;;;-0.89;100.00;94776.44;5132222;28;20034;-83
2021/12/14 02:06:15;;;;;;;9.77;5.22;;;;;;;-0.59;100.00;94785.50;5130804;28;20019;-83
2021/12/14 02:08:41;;;;;;;7.53;5.13;;;;;;;-0.71;100.00;94781.53;5129883;28;20495;-83
2021/12/14 02:11:08;;;;;;;8.27;5.07;;;;;;;-0.70;100.00;94776.94;5114848;28;20087;-82
2021/12/14 02:13:41;;;;;;;7.65;5.00;;;;;;;-0.54;100.00;94787.69;5113946;28;20039;-85
2021/12/14 02:16:09;;;;;;;10.23;5.60;;;;;;;-0.66;100.00;94782.97;5113484;28;20040;-84
2021/12/14 02:18:35;;;;;;;8.55;4.85;;;;;;;-0.52;100.00;94777.41;5131715;28;20024;-82
2021/12/14 02:21:09;;;;;;;7.72;5.30;;;;;;;-0.63;100.00;94781.41;5114395;28;20031;-82
2021/12/14 02:23:38;;;;;;;6.55;4.53;;;;;;;-0.84;100.00;94777.19;5114569;28;20028;-82
2021/12/14 02:26:07;;;;;;;6.55;4.63;;;;;;;-0.66;100.00;94782.97;5129029;28;20409;-83
2021/12/14 02:28:33;;;;;;;7.45;4.75;;;;;;;-0.46;100.00;94782.22;5109466;28;20027;-83
2021/12/14 02:31:01;;;;;;;7.10;4.85;;;;;;;-0.65;100.00;94778.41;5127624;28;20058;-83
2021/12/14 02:33:35;;;;;;;8.00;5.05;;;;;;;-0.66;100.00;94782.22;5126564;28;20023;-82
2021/12/14 02:36:09;;;;;;;8.65;4.95;;;;;;;-0.89;100.00;94781.03;5123592;28;20020;-82
2021/12/14 02:38:43;;;;;;;8.23;5.22;;;;;;;-0.64;100.00;94785.97;5123800;28;20031;-82
2021/12/14 02:41:09;;;;;;;9.07;4.70;;;;;;;-0.74;100.00;94792.97;5123572;28;20452;-83
2021/12/14 02:43:41;;;;;;;6.70;4.63;;;;;;;-0.82;100.00;94785.50;5123330;28;20031;-83
2021/12/14 02:46:09;;;;;;;8.80;5.13;;;;;;;-0.77;100.00;94791.13;5108243;28;20047;-81
2021/12/14 02:48:35;;;;;;;7.65;5.10;;;;;;;-0.91;100.00;94792.09;5124262;28;20468;-81
2021/12/14 02:51:26;;;;;;;8.73;5.72;;;;;;;-0.91;100.00;94789.44;5118465;28;20092;-83
2021/12/14 02:53:57;;;;;;;7.32;4.88;;;;;;;-0.92;100.00;94787.94;5118681;28;20042;-83
2021/12/14 02:56:28;;;;;;;5.95;4.15;;;;;;;-0.90;100.00;94790.19;5124143;28;20448;-83
2021/12/14 02:59:00;;;;;;;9.35;5.45;;;;;;;-0.92;100.00;94789.84;5100767;28;20042;-81
2021/12/14 03:01:27;;;;;;;9.07;5.15;;;;;;;-0.79;100.00;94800.69;5117350;28;20059;-82
2021/12/14 03:03:52;;;;;;;8.25;5.32;;;;;;;-0.74;100.00;94792.22;5117707;28;20024;-82
2021/12/14 03:06:24;;;;;;;8.25;4.93;;;;;;;-0.71;100.00;94796.75;5117830;28;20038;-82
2021/12/14 03:09:07;;;;;;;8.63;5.15;;;;;;;-0.89;100.00;94792.44;5100742;28;20118;-81
2021/12/14 03:11:37;;;;;;;8.18;5.05;;;;;;;-0.88;100.00;94804.63;5119134;28;20456;-81
2021/12/14 03:14:03;;;;;;;6.82;5.22;;;;;;;-0.82;100.00;94801.50;5121451;28;20030;-81
2021/12/14 03:16:32;;;;;;;7.18;5.00;;;;;;;-0.94;100.00;94797.50;5123304;28;20062;-82
2021/12/14 03:18:59;;;;;;;6.45;4.55;;;;;;;-0.89;100.00;94813.78;5122407;28;20027;-82
2021/12/14 03:21:34;;;;;;;9.13;5.03;;;;;;;-0.87;100.00;94805.38;5103453;28;20062;-82
2021/12/14 03:24:04;;;;;;;8.75;5.10;;;;;;;-0.92;100.00;94797.84;5124698;28;20036;-82
2021/12/14 03:26:32;;;;;;;7.38;5.03;;;;;;;-0.92;100.00;94800.50;5121993;28;20110;-81
2021/12/14 03:29:03;;;;;;;8.38;5.40;;;;;;;-0.93;100.00;94802.41;5102794;28;20027;-81
2021/12/14 03:31:45;;;;;;;7.35;5.30;;;;;;;-0.86;100.00;94796.22;5122110;28;20035;-82
2021/12/14 03:34:13;;;;;;;;;;;;;;;-0.64;100.00;94801.22;5121949;28;20038;-82
2021/12/14 03:36:47;;;;;;;11.10;5.50;;;;;;;-0.92;100.00;94801.25;5121314;28;19915;-82
2021/12/14 03:39:14;;;;;;;9.43;5.97;;;;;;;-1.06;100.00;94801.50;5119258;28;20111;-82
2021/12/14 03:41:47;;;;;;;7.35;5.18;;;;;;;-0.79;100.00;94800.69;5118651;28;20106;-82
2021/12/14 03:44:18;;;;;;;8.15;5.20;;;;;;;-0.94;100.00;94800.91;5100533;28;20038;-82
2021/12/14 03:46:57;;;;;;;8.60;5.68;;;;;;;-0.84;100.00;94801.16;5118872;28;20361;-81
2021/12/14 03:49:27;;;;;;;9.77;5.65;;;;;;;-0.92;100.00;94793.25;5130627;28;20079;-79
2021/12/14 03:51:53;;;;;;;8.48;5.45;;;;;;;-0.62;100.00;94804.97;5137623;28;20027;-77
2021/12/14 03:54:20;;;;;;;7.25;5.30;;;;;;;-0.82;100.00;94799.56;5138456;28;20019;-80
2021/12/14 03:56:47;;;;;;;8.55;5.72;;;;;;;-0.79;100.00;94806.00;5120219;28;20479;-82
2021/12/14 03:59:12;;;;;;;11.32;6.30;;;;;;;-0.74;100.00;94805.56;5133882;28;20027;-81
2021/12/14 04:01:41;;;;;;;10.30;5.47;;;;;;;-1.03;100.00;94811.34;5126279;28;20048;-81
2021/12/14 04:04:21;;;;;;;8.85;5.25;;;;;;;-0.83;100.00;94815.97;5120295;28;20036;-80
2021/12/14 04:06:50;;;;;;;9.98;5.90;;;;;;;-0.94;100.00;94811.59;5116963;28;20102;-81
2021/12/14 04:09:19;;;;;;;9.77;6.25;;;;;;;-0.83;100.00;94821.31;5116851;28;20031;-81
2021/12/14 04:11:45;;;;;;;8.48;5.40;;;;;;;-0.72;100.00;94816.59;5123908;28;20051;-82
2021/12/14 04:14:11;;;;;;;9.88;6.20;;;;;;;-0.86;100.00;94826.31;5122468;28;20016;-82
2021/12/14 04:16:40;;;;;;;9.23;6.10;;;;;;;-0.83;100.00;94815.97;5130207;28;20042;-83
2021/12/14 04:19:10;;;;;;;12.00;5.93;;;;;;;-0.92;100.00;94814.59;5125315;28;20066;-83
2021/12/14 04:21:39;;;;;;;9.20;5.57;;;;;;;-0.96;100.00;94821.88;5123988;28;20020;-82
2021/12/14 04:24:08;;;;;;;9.57;5.72;;;;;;;-0.99;100.00;94825.34;5119838;28;20425;-82
2021/12/14 04:26:33;;;;;;;10.95;6.72;;;;;;;-1.07;100.00;94824.69;5100501;28;20065;-82
2021/12/14 04:29:01;;;;;;;12.20;6.60;;;;;;;-0.98;100.00;94824.22;5120535;28;20024;-80
2021/12/14 04:31:27;;;;;;;10.05;6.68;;;;;;;-0.96;100.00;94827.22;5121586;28;20027;-82
2021/12/14 04:33:53;;;;;;;11.02;7.07;;;;;;;-0.81;100.00;94830.41;5126752;28;20027;-82
2021/12/14 04:36:25;;;;;;;9.75;5.93;;;;;;;-1.01;100.00;94827.66;5122364;28;20110;-82
2021/12/14 04:38:57;;;;;;;9.98;6.82;;;;;;;-0.97;100.00;94828.34;5124893;28;20047;-82
2021/12/14 04:52:27;;;;;;;14.38;7.15;;;;;;;-1.04;100.00;94833.78;5117949;28;20150;-82
2021/12/14 04:55:02;;;;;;;10.65;7.00;;;;;;;-1.16;100.00;94831.69;5119392;28;20024;-82
2021/12/14 04:57:47;;;;;;;13.82;7.90;;;;;;;-1.07;100.00;94835.34;5126069;28;20513;-82
2021/12/14 05:00:36;;;;;;;17.05;7.22;;;;;;;-1.08;100.00;94833.09;5124205;28;20058;-82
2021/12/14 05:03:10;;;;;;;14.80;8.38;;;;;;;-1.21;100.00;94833.66;5107349;28;20047;-80
2021/12/14 05:05:45;;;;;;;15.30;8.30;;;;;;;-1.01;100.00;94840.97;5105628;28;20035;-80
2021/12/14 05:10:44;;;;;;;16.98;7.75;;;;;;;-1.11;100.00;94833.91;5118824;28;20055;-82
2021/12/14 05:13:10;;;;;;;19.77;7.55;;;;;;;-1.01;100.00;94840.97;5121268;28;20027;-82
2021/12/14 05:15:41;;;;;;;16.75;7.93;;;;;;;-1.05;100.00;94838.38;5118113;28;20092;-82
2021/12/14 05:18:14;;;;;;;11.70;6.95;;;;;;;-1.06;100.00;94838.78;5099292;28;20031;-81
2021/12/14 05:20:47;;;;;;;12.50;7.05;;;;;;;-1.07;100.00;94845.25;5117890;28;20023;-82
2021/12/14 05:23:21;;;;;;;17.88;7.60;;;;;;;-0.97;100.00;94841.69;5119858;28;20027;-82
2021/12/14 05:25:47;;;;;;;14.35;8.23;;;;;;;-0.89;100.00;94839.69;5103231;28;20051;-81
2021/12/14 05:28:15;;;;;;;15.45;7.20;;;;;;;-0.96;100.00;94840.53;5105191;28;20034;-83
2021/12/14 05:30:44;;;;;;;17.67;7.85;;;;;;;-0.93;100.00;94845.03;5122243;28;20023;-83
2021/12/14 05:33:15;;;;;;;12.85;7.78;;;;;;;-1.04;100.00;94839.13;5119717;28;20412;-82
2021/12/14 05:35:45;;;;;;;15.20;7.82;;;;;;;-1.02;100.00;94844.81;5101848;28;20042;-83
2021/12/14 05:38:22;;;;;;;13.57;7.80;;;;;;;-1.00;100.00;94847.81;5118992;28;20031;-82
2021/12/14 05:43:29;;;;;;;15.55;7.35;;;;;;;-0.87;100.00;94848.78;5115893;28;20032;-82
2021/12/14 05:46:00;;;;;;;10.93;7.40;;;;;;;-0.90;100.00;94854.16;5115070;28;20106;-82
2021/12/14 05:48:29;;;;;;;11.10;7.80;;;;;;;-0.99;100.00;94861.91;5119276;28;20495;-81
2021/12/14 05:50:59;;;;;;;12.95;7.80;;;;;;;-0.77;100.00;94855.09;5122240;28;20096;-82
2021/12/14 05:53:26;;;;;;;14.35;7.15;;;;;;;-0.89;100.00;94859.06;5120819;28;20063;-81
2021/12/14 05:55:53;;;;;;;12.38;8.02;;;;;;;-0.94;100.00;94864.09;5098252;28;20043;-81
2021/12/14 05:58:23;;;;;;;11.98;7.35;;;;;;;-0.95;100.00;94863.38;5118114;28;20380;-81
2021/12/14 06:01:03;;;;;;;15.20;7.22;;;;;;;-1.01;100.00;94870.28;5116139;28;20050;-82
2021/12/14 06:03:38;;;;;;;12.63;7.70;;;;;;;-0.78;100.00;94877.56;5115433;28;20039;-80
2021/12/14 06:06:19;;;;;;;14.13;6.97;;;;;;;-0.90;100.00;94870.91;5117508;28;20034;-79
2021/12/14 06:08:45;;;;;;;15.98;7.70;;;;;;;-0.78;100.00;94882.91;5114322;28;20032;-81
2021/12/14 06:11:25;;;;;;;14.93;8.68;;;;;;;-0.74;100.00;94883.63;5117420;28;20051;-82
2021/12/14 06:13:52;;;;;;;11.25;7.25;;;;;;;-0.91;100.00;94881.97;5120074;28;20032;-81
2021/12/14 06:16:36;;;;;;;14.52;8.07;;;;;;;-0.71;100.00;94885.50;5119463;28;20019;-81
2021/12/14 06:19:41;;;;;;;19.02;8.27;;;;;;;-0.63;100.00;94872.78;5120300;28;20027;-80
2021/12/14 06:22:19;;;;;;;17.35;8.35;;;;;;;-0.65;100.00;94880.44;5119177;28;20047;-81
2021/12/14 06:24:49;;;;;;;13.82;8.60;;;;;;;-0.67;100.00;94882.75;5118539;28;20369;-82
2021/12/14 06:27:19;;;;;;;13.63;7.55;;;;;;;-0.70;100.00;94883.56;5102289;28;20028;-82
2021/12/14 06:29:55;;;;;;;11.35;7.55;;;;;;;-0.47;100.00;94884.75;5118466;28;20043;-81
2021/12/14 06:32:33;;;;;;;12.73;7.63;;;;;;;-0.50;100.00;94891.66;5118567;28;20107;-81
2021/12/14 06:35:05;;;;;;;12.90;8.32;;;;;;;-0.36;100.00;94890.66;5121294;28;20027;-81
2021/12/14 06:40:43;;;;;;;15.48;7.47;;;;;;;-0.44;100.00;94894.63;5110086;28;20111;-81
2021/12/14 06:43:16;;;;;;;16.17;8.02;;;;;;;-0.42;100.00;94895.72;5117551;28;20474;-82
2021/12/14 06:45:46;;;;;;;16.40;8.20;;;;;;;-0.44;100.00;94906.03;5117374;28;20028;-81
2021/12/14 06:48:22;;;;;;;14.82;8.35;;;;;;;-0.36;100.00;94906.69;5118008;28;20111;-81
2021/12/14 06:50:54;;;;;;;14.93;7.60;;;;;;;-0.54;100.00;94907.69;5118203;28;20039;-81
2021/12/14 06:53:21;;;;;;;13.73;8.18;;;;;;;-0.58;100.00;94912.34;5117766;28;20023;-81
2021/12/14 06:55:50;;;;;;;19.30;9.02;;;;;;;-0.33;100.00;94910.44;5119246;28;20464;-81
2021/12/14 06:58:25;;;;;;;13.85;8.50;;;;;;;-0.28;100.00;94913.41;5117656;28;20092;-81
2021/12/14 07:01:33;;;;;;;18.90;8.85;;;;;;;-0.36;100.00;94917.34;5117876;28;20019;-81
2021/12/14 07:04:03;;;;;;;15.35;7.65;;;;;;;-0.37;100.00;94918.50;5016494;28;20498;-81
2021/12/14 07:06:43;;;;;;;13.68;8.77;;;;;;;-0.39;100.00;94918.16;5023544;28;20092;-82
2021/12/14 07:09:16;;;;;;;15.77;8.68;;;;;;;-0.44;100.00;94921.28;5077789;28;20115;-82
2021/12/14 07:11:48;;;;;;;17.77;9.27;;;;;;;-0.29;100.00;94921.81;5123329;28;20039;-83
2021/12/14 07:14:37;;;;;;;18.40;9.57;;;;;;;-0.31;100.00;94921.44;5120883;28;20077;-83
2021/12/14 07:17:08;;;;;;;17.70;10.00;;;;;;;-0.41;100.00;94928.47;5119475;28;20110;-83
2021/12/14 07:19:47;;;;;;;22.00;10.45;;;;;;;-0.28;100.00;94928.66;5118952;28;20027;-82
2021/12/14 07:22:27;;;;;;;27.27;12.00;;;;;;;-0.07;100.00;94933.66;5119401;28;20055;-81
2021/12/14 07:25:20;;;;;;;21.85;11.52;;;;;;;-0.18;100.00;94933.06;5117314;28;20027;-78
2021/12/14 07:27:54;;;;;;;23.50;11.60;;;;;;;-0.17;100.00;94938.00;5116920;28;20581;-79
2021/12/14 07:30:22;;;;;;;19.77;11.05;;;;;;;-0.54;100.00;94934.38;5097707;28;20482;-79
2021/12/14 07:32:55;;;;;;;20.95;10.10;;;;;;;-0.41;100.00;94928.47;5116001;28;20424;-79
2021/12/14 07:35:28;;;;;;;21.30;11.35;;;;;;;0.45;100.00;94940.38;5116501;28;20035;-80
2021/12/14 07:38:01;;;;;;;56.80;33.33;;;;;;;0.08;100.00;94939.53;5116687;28;20035;-79
2021/12/14 07:40:39;;;;;;;28.75;16.30;;;;;;;0.03;100.00;94944.53;5099023;28;20027;-81
2021/12/14 07:43:18;;;;;;;21.67;12.18;;;;;;;-0.05;100.00;94947.34;5117683;28;20026;-81
2021/12/14 07:45:46;;;;;;;23.02;12.68;;;;;;;0.29;100.00;94951.72;5118118;28;20056;-81
2021/12/14 07:48:12;;;;;;;22.13;12.10;;;;;;;0.28;100.00;94952.16;5117602;28;20091;-84
2021/12/14 07:50:41;;;;;;;22.77;11.98;;;;;;;0.19;100.00;94950.00;5118483;28;20460;-84
2021/12/14 07:53:06;;;;;;;26.48;11.90;;;;;;;-0.02;100.00;94946.53;5117672;28;20114;-84
2021/12/14 07:55:38;;;;;;;20.52;12.05;;;;;;;0.23;100.00;94944.59;5116642;28;20444;-84
2021/12/14 07:58:05;;;;;;;22.38;11.73;;;;;;;0.28;100.00;94944.13;5116918;28;20027;-84
2021/12/14 08:00:35;;;;;;;24.52;12.60;;;;;;;0.09;100.00;94953.59;5117457;28;20024;-85
2021/12/14 08:03:02;;;;;;;26.67;12.13;;;;;;;0.27;100.00;94956.75;5117000;28;20055;-84
2021/12/14 08:05:34;;;;;;;19.70;11.13;;;;;;;0.44;100.00;94962.16;5116913;28;20041;-84
2021/12/14 08:08:14;;;;;;;19.77;11.18;;;;;;;0.32;100.00;94966.94;5116660;28;20023;-84
2021/12/14 08:10:47;;;;;;;19.17;10.45;;;;;;;0.23;100.00;94966.72;5098355;28;20041;-84
2021/12/14 08:13:20;;;;;;;17.65;9.80;;;;;;;0.31;100.00;94968.13;5117077;28;20020;-84
2021/12/14 08:15:50;;;;;;;18.88;10.90;;;;;;;0.40;100.00;94972.16;5116630;28;20333;-82
2021/12/14 08:18:23;;;;;;;17.80;10.43;;;;;;;0.61;100.00;94968.34;5116179;28;20475;-84
2021/12/14 08:20:52;;;;;;;19.58;11.43;;;;;;;0.68;100.00;94976.22;5118300;28;20070;-82
2021/12/14 08:23:26;;;;;;;18.15;11.10;;;;;;;0.66;100.00;94973.22;5118636;28;20021;-85
2021/12/14 08:26:18;;;;;;;20.60;11.65;;;;;;;0.65;100.00;94969.03;5101728;28;20062;-85
2021/12/14 08:29:06;;;;;;;19.52;11.23;;;;;;;0.48;100.00;94976.97;5115820;28;20027;-85
2021/12/14 08:31:40;;;;;;;18.63;11.82;;;;;;;0.75;100.00;94976.09;5116466;28;20101;-85
2021/12/14 08:34:09;;;;;;;26.42;12.50;;;;;;;0.69;100.00;94975.06;5115617;28;20104;-86
2021/12/14 08:36:37;;;;;;;22.35;12.85;;;;;;;0.68;100.00;94981.56;5116750;28;20031;-83
2021/12/14 08:39:12;;;;;;;23.70;12.30;;;;;;;0.69;100.00;94980.41;5115471;28;20020;-84
2021/12/14 08:41:47;;;;;;;18.13;12.10;;;;;;;0.79;100.00;94973.34;5118594;28;20395;-84
2021/12/14 08:44:20;;;;;;;19.27;12.20;;;;;;;0.64;100.00;94962.16;5115949;28;20110;-84
2021/12/14 08:46:49;;;;;;;21.45;11.95;;;;;;;0.55;100.00;94970.00;5115446;28;20031;-83
2021/12/14 08:49:16;;;;;;;22.15;13.18;;;;;;;0.39;100.00;94954.63;5115522;28;20119;-83
2021/12/14 08:51:44;;;;;;;27.85;13.55;;;;;;;0.73;100.00;94954.38;5116501;28;20107;-84
2021/12/14 08:54:17;;;;;;;23.40;13.73;;;;;;;0.78;100.00;94961.91;5098131;28;20114;-84
2021/12/14 08:56:54;;;;;;;89.03;50.47;;;;;;;0.80;100.00;94959.56;5098295;28;20040;-83
2021/12/14 08:59:20;;;;;;;27.50;16.88;;;;;;;0.82;100.00;94965.25;5116814;28;20024;-85
2021/12/14 09:01:47;;;;;;;29.98;14.98;;;;;;;0.71;100.00;94956.72;5115367;28;20047;-84
2021/12/14 09:04:20;;;;;;;26.98;14.55;;;;;;;0.84;100.00;94954.91;5115659;28;20118;-83
2021/12/14 09:06:49;;;;;;;22.48;14.05;;;;;;;0.94;100.00;94963.13;5115438;28;20031;-84
2021/12/14 09:09:19;;;;;;;23.20;14.75;;;;;;;1.01;100.00;94958.41;5115064;28;20047;-85
2021/12/14 09:11:48;;;;;;;26.67;15.23;;;;;;;1.14;100.00;94952.41;5115290;28;20054;-85
2021/12/14 09:14:17;;;;;;;27.83;15.25;;;;;;;1.18;100.00;94958.44;5114529;28;20034;-83
2021/12/14 09:16:47;;;;;;;28.80;15.95;;;;;;;1.20;100.00;94955.34;5114853;28;20440;-85
2021/12/14 09:19:24;;;;;;;23.90;14.77;;;;;;;1.02;100.00;94953.78;5114523;28;20034;-85
2021/12/14 09:21:53;;;;;;;25.90;15.10;;;;;;;1.18;100.00;94951.16;5114898;28;20023;-84
2021/12/14 09:24:21;;;;;;;21.70;13.32;;;;;;;1.41;100.00;94954.91;5114128;28;20102;-85
2021/12/14 09:26:54;;;;;;;23.63;14.02;;;;;;;1.44;100.00;94951.38;5114300;28;20448;-84
2021/12/14 09:29:21;;;;;;;24.88;14.63;;;;;;;1.58;100.00;94942.31;5115547;28;20023;-84
2021/12/14 09:31:50;;;;;;;18.05;11.90;;;;;;;1.52;100.00;94941.28;5114496;28;20094;-84
2021/12/14 09:34:19;;;;;;;22.70;12.68;;;;;;;1.71;100.00;94938.97;5114245;28;20039;-84
2021/12/14 09:36:46;;;;;;;26.02;13.68;;;;;;;1.56;100.00;94933.19;5115435;28;20023;-84
2021/12/14 09:39:18;;;;;;;20.50;13.80;;;;;;;1.43;100.00;94930.41;5096083;28;20051;-85
2021/12/14 09:41:46;;;;;;;23.23;14.80;;;;;;;1.61;100.00;94928.09;5095935;28;20049;-85
2021/12/14 09:44:16;;;;;;;24.35;14.93;;;;;;;1.79;100.00;94925.00;5113873;28;20035;-85
2021/12/14 09:46:42;;;;;;;27.23;15.00;;;;;;;1.60;100.00;94925.84;5113388;28;20029;-85
2021/12/14 09:49:11;;;;;;;23.55;14.95;;;;;;;1.30;100.00;94933.00;5114242;28;20038;-85
2021/12/14 09:51:47;;;;;;;29.02;15.30;;;;;;;1.10;100.00;94928.41;5114085;28;20058;-85
2021/12/14 09:54:21;;;;;;;30.25;17.63;;;;;;;1.23;100.00;94925.09;5114527;28;20027;-85
2021/12/14 09:56:51;;;;;;;23.58;15.20;;;;;;;1.24;100.00;94913.25;5115334;28;20082;-86
2021/12/14 09:59:18;;;;;;;26.83;14.55;;;;;;;1.01;100.00;94912.97;5116469;28;20106;-85
2021/12/14 10:01:47;;;;;;;28.63;17.30;;;;;;;1.17;100.00;94906.91;5110634;28;20036;-85
2021/12/14 10:04:26;;;;;;;31.23;17.23;;;;;;;1.04;100.00;94907.94;5125388;28;20031;-84
2021/12/14 10:06:52;;;;;;;31.48;18.60;;;;;;;1.26;100.00;94913.59;5098238;28;20092;-85
2021/12/14 10:09:23;;;;;;;33.05;16.23;;;;;;;1.21;100.00;94922.09;5095609;28;20068;-85
2021/12/14 10:14:28;;;;;;;33.88;16.98;;;;;;;1.23;100.00;94909.06;5113422;28;20038;-84
2021/12/14 10:16:55;;;;;;;33.13;16.60;;;;;;;1.16;100.00;94910.00;5095872;28;20107;-84
2021/12/14 10:19:25;;;;;;;29.77;17.50;;;;;;;1.40;100.00;94913.25;5096010;28;20028;-85
2021/12/14 10:22:00;;;;;;;37.38;18.90;;;;;;;1.59;100.00;94913.63;5095405;28;20127;-83
2021/12/14 10:24:25;;;;;;;31.85;19.15;;;;;;;1.72;100.00;94914.47;5113826;28;20057;-84
2021/12/14 10:26:57;;;;;;;26.92;16.55;;;;;;;1.41;100.00;94903.34;5113663;28;20036;-84
2021/12/14 10:29:29;;;;;;;26.80;15.65;;;;;;;1.32;100.00;94901.22;5113528;28;20437;-84
2021/12/14 10:32:03;;;;;;;28.60;16.73;;;;;;;1.38;100.00;94899.56;5113550;28;20031;-84
2021/12/14 10:34:38;;;;;;;32.45;16.88;;;;;;;1.68;100.00;94905.75;5095315;28;20023;-84
2021/12/14 10:37:15;;;;;;;31.40;17.60;;;;;;;1.62;100.00;94902.84;5113764;28;20035;-85
2021/12/14 10:42:40;;;;;;;26.40;16.05;;;;;;;1.43;100.00;94901.75;5113953;28;20027;-84
2021/12/14 10:45:07;;;;;;;31.10;15.82;;;;;;;1.42;100.00;94894.13;5114566;28;20104;-86
2021/12/14 10:47:34;;;;;;;24.17;14.73;;;;;;;1.28;100.00;94895.97;5095521;28;20092;-86
2021/12/14 10:50:08;;;;;;;24.63;14.07;;;;;;;1.27;100.00;94899.03;5095883;28;20039;-86
2021/12/14 10:52:34;;;;;;;24.27;15.48;;;;;;;1.43;100.00;94891.06;5114374;28;20032;-84
2021/12/14 10:55:09;;;;;;;25.67;15.02;;;;;;;1.46;100.00;94890.22;5113636;28;20020;-85
2021/12/14 10:57:36;;;;;;;26.08;15.93;;;;;;;1.61;100.00;94889.88;5114172;28;20448;-85
2021/12/14 11:00:14;;;;;;;27.80;17.27;;;;;;;1.21;100.00;94896.09;5099591;28;20039;-85
2021/12/14 11:02:42;;;;;;;29.27;17.50;;;;;;;1.32;100.00;94893.19;5099108;28;20048;-86
2021/12/14 11:05:15;;;;;;;28.55;18.80;;;;;;;1.35;100.00;94889.72;5117409;28;20027;-85
2021/12/14 11:07:45;;;;;;;31.83;19.23;;;;;;;1.32;100.00;94890.53;5118351;28;20023;-85
2021/12/14 11:10:20;;;;;;;32.53;18.58;;;;;;;1.47;100.00;94885.59;5099330;28;20475;-85
2021/12/14 11:12:54;;;;;;;30.60;18.92;;;;;;;1.26;100.00;94892.19;5117483;28;20027;-86
2021/12/14 11:15:35;;;;;;;29.15;17.98;;;;;;;1.02;100.00;94884.28;5098765;28;20054;-85
2021/12/14 11:18:08;;;;;;;32.70;17.67;;;;;;;0.88;100.00;94876.59;5099552;28;20376;-83
2021/12/14 11:21:00;;;;;;;41.88;21.25;;;;;;;1.00;100.00;94884.72;5117916;28;20035;-84
2021/12/14 11:23:31;;;;;;;39.15;20.83;;;;;;;0.91;100.00;94884.50;5098886;28;20345;-85
2021/12/14 11:26:27;;;;;;;36.60;20.95;;;;;;;0.69;100.00;94884.22;5116838;28;20027;-85
2021/12/14 11:29:09;;;;;;;36.53;21.05;;;;;;;0.65;100.00;94878.19;5100060;28;20027;-85
2021/12/14 11:31:54;;;;;;;36.05;20.13;;;;;;;0.77;100.00;94874.88;5117389;28;20028;-84
2021/12/14 11:34:35;;;;;;;38.25;19.60;;;;;;;1.86;100.00;94873.94;5117109;28;20080;-77
2021/12/14 11:37:08;;;;;;;35.50;21.00;;;;;;;4.05;100.00;94882.25;5115732;28;20445;-81
2021/12/14 11:39:41;;;;;;;29.92;18.38;;;;;;;2.07;100.00;94877.25;5116255;28;20028;-82
2021/12/14 11:42:21;;;;;;;34.95;19.60;;;;;;;1.81;100.00;94871.81;5116674;28;20487;-82
2021/12/14 11:45:01;;;;;;;29.10;17.30;;;;;;;1.54;100.00;94874.75;5117295;28;20106;-82
2021/12/14 11:50:31;;;;;;;30.38;18.27;;;;;;;1.30;100.00;94860.78;5117131;28;20095;-82
2021/12/14 11:53:05;;;;;;;30.73;17.90;;;;;;;1.29;100.00;94865.38;5098435;28;20062;-81
2021/12/14 11:55:39;;;;;;;27.65;18.02;;;;;;;1.01;100.00;94870.19;5116603;28;20028;-80
2021/12/14 11:58:19;;;;;;;28.98;18.02;;;;;;;1.09;100.00;94862.00;5116105;28;20031;-81
2021/12/14 12:00:51;;;;;;;30.23;17.80;;;;;;;1.32;100.00;94871.81;5116916;28;20513;-81
2021/12/14 12:03:32;;;;;;;33.35;18.77;;;;;;;1.63;100.00;94866.13;5117082;28;20043;-81
2021/12/14 12:06:08;;;;;;;30.27;18.90;;;;;;;1.60;100.00;94861.63;5099916;28;20034;-80
2021/12/14 12:11:24;;;;;;;32.15;17.70;;;;;;;1.50;100.00;94869.47;5122023;28;20057;-81
2021/12/14 12:13:50;;;;;;;27.45;17.45;;;;;;;1.43;100.00;94858.19;5124509;28;20047;-80
2021/12/14 12:16:22;;;;;;;31.98;17.48;;;;;;;1.33;100.00;94857.25;5121090;28;20329;-79